Time;durP1;ratioP1;P1;durP2;ratioP2;P2;SDS_P1;SDS_P2;PMS_P1;PMS_P2;Temp;Humidity;BMP_temperature;BMP_pressure;BME280_temperature;BME280_humidity;BME280_pressure;Samples;Min_cycle;Max_cycle;Signal;HPM_P1;HPM_P2
2022/01/16 00:00:47;;;;;;;2.63;1.00;;;2.40;69.00;;;;;;6221041;23;20008;-78
2022/01/16 00:05:57;;;;;;;1.27;0.90;;;2.50;69.60;;;;;;6246855;23;20015;-78
2022/01/16 00:08:23;;;;;;;3.00;1.20;;;2.50;69.20;;;;;;6218530;23;20079;-77
2022/01/16 00:10:49;;;;;;;0.98;0.65;;;2.50;69.20;;;;;;6219931;23;20004;-77
2022/01/16 00:13:15;;;;;;;1.40;0.60;;;2.50;69.20;;;;;;6246662;23;20031;-78
2022/01/16 00:15:44;;;;;;;1.38;0.90;;;2.50;69.20;;;;;;6220289;23;20012;-77
2022/01/16 00:18:48;;;;;;;1.70;1.08;;;2.50;69.40;;;;;;6220045;23;20011;-77
2022/01/16 00:20:59;;;;;;;3.03;1.23;;;2.50;69.30;;;;;;6245620;23;20001;-77
2022/01/16 00:23:27;;;;;;;1.83;0.93;;;2.50;69.10;;;;;;6219949;23;20004;-77
2022/01/16 00:25:55;;;;;;;1.35;1.05;;;2.50;69.20;;;;;;6220087;23;20001;-78
2022/01/16 00:28:22;;;;;;;1.55;1.10;;;2.50;69.00;;;;;;6246635;23;19996;-77
2022/01/16 00:30:49;;;;;;;1.25;0.68;;;2.50;69.20;;;;;;6219954;23;20004;-77
2022/01/16 00:33:15;;;;;;;2.00;1.20;;;2.50;68.90;;;;;;6220028;23;20091;-77
2022/01/16 00:35:41;;;;;;;2.15;0.82;;;2.50;69.00;;;;;;6246180;23;20487;-77
2022/01/16 00:38:07;;;;;;;1.23;0.70;;;2.50;69.00;;;;;;6220098;23;20004;-77
2022/01/16 00:40:33;;;;;;;1.15;1.02;;;2.50;69.40;;;;;;6246608;23;20042;-78
2022/01/16 00:42:59;;;;;;;1.70;1.00;;;2.40;69.40;;;;;;6219801;23;20059;-78
2022/01/16 00:45:25;;;;;;;1.45;0.80;;;2.50;69.30;;;;;;6220073;23;20423;-78
2022/01/16 00:47:52;;;;;;;1.00;0.77;;;2.50;69.40;;;;;;6246664;23;20001;-78
2022/01/16 00:50:18;;;;;;;0.98;0.80;;;2.50;69.50;;;;;;6219860;23;20319;-78
2022/01/16 00:52:44;;;;;;;3.10;1.25;;;2.50;69.60;;;;;;6219815;23;20016;-77
2022/01/16 00:55:10;;;;;;;2.15;0.85;;;2.50;69.40;;;;;;6219884;23;20004;-78
2022/01/16 00:57:35;;;;;;;1.45;0.90;;;2.50;69.60;;;;;;6219979;23;20055;-78
2022/01/16 01:00:02;;;;;;;2.00;1.40;;;2.40;69.50;;;;;;6246854;23;20004;-77
2022/01/16 01:02:28;;;;;;;1.35;1.00;;;2.40;69.50;;;;;;6247159;23;20071;-78
2022/01/16 01:04:54;;;;;;;2.53;1.05;;;2.40;69.50;;;;;;6219675;23;20356;-78
2022/01/16 01:07:20;;;;;;;1.33;0.82;;;2.40;69.60;;;;;;6220230;23;20004;-78
2022/01/16 01:09:45;;;;;;;1.73;0.95;;;2.40;69.80;;;;;;6222010;23;20058;-78
2022/01/16 01:12:20;;;;;;;2.35;1.27;;;2.40;69.80;;;;;;6248850;23;20400;-78
2022/01/16 01:14:53;;;;;;;1.63;0.90;;;2.40;69.70;;;;;;6248940;23;20000;-77
2022/01/16 01:17:24;;;;;;;3.00;0.93;;;2.40;69.80;;;;;;6221827;23;20004;-77
2022/01/16 01:19:50;;;;;;;1.65;0.90;;;2.40;69.90;;;;;;6221977;23;20050;-77
2022/01/16 01:22:16;;;;;;;1.45;0.90;;;2.40;70.10;;;;;;6221816;23;20039;-77
2022/01/16 01:24:41;;;;;;;1.80;1.08;;;2.50;70.10;;;;;;6248510;23;20000;-77
2022/01/16 01:29:34;;;;;;;2.75;1.25;;;2.50;70.00;;;;;;6249053;23;20000;-77
2022/01/16 01:32:00;;;;;;;1.85;1.15;;;2.50;70.10;;;;;;6248885;23;20315;-78
2022/01/16 01:34:26;;;;;;;1.92;1.00;;;2.50;70.20;;;;;;6222193;23;20051;-77
2022/01/16 01:36:52;;;;;;;2.45;1.00;;;2.50;70.30;;;;;;6248537;23;20012;-77
2022/01/16 01:39:20;;;;;;;1.35;0.88;;;2.50;70.50;;;;;;6222033;23;20000;-78
2022/01/16 01:41:49;;;;;;;3.38;1.10;;;2.40;70.40;;;;;;6248717;23;19992;-77
2022/01/16 01:52:39;;;;;;;2.25;1.20;;;2.40;70.80;;;;;;6248038;23;20342;-77
2022/01/16 01:55:04;;;;;;;1.75;1.13;;;2.40;71.10;;;;;;6248492;23;20008;-76
2022/01/16 01:57:31;;;;;;;2.50;1.30;;;2.40;70.90;;;;;;6248612;23;20011;-77
2022/01/16 01:59:57;;;;;;;1.13;0.98;;;2.40;70.90;;;;;;6248502;23;20071;-77
2022/01/16 02:02:26;;;;;;;1.83;1.00;;;2.40;71.10;;;;;;6221522;23;20028;-77
2022/01/16 02:04:51;;;;;;;2.63;1.20;;;2.40;71.10;;;;;;6221220;23;20010;-78
2022/01/16 02:07:17;;;;;;;2.15;1.23;;;2.40;71.20;;;;;;6247780;23;20023;-77
2022/01/16 02:09:43;;;;;;;2.45;1.25;;;2.40;71.20;;;;;;6221874;23;20000;-77
2022/01/16 02:12:09;;;;;;;1.67;1.20;;;2.40;71.20;;;;;;6220444;23;20087;-77
2022/01/16 02:14:52;;;;;;;2.33;1.17;;;2.40;71.70;;;;;;6247917;23;20020;-77
2022/01/16 02:28:37;;;;;;;1.42;1.00;;;2.40;70.90;;;;;;6247760;23;20338;-76
2022/01/16 02:31:17;;;;;;;4.38;1.17;;;2.30;70.60;;;;;;6248174;23;19996;-77
2022/01/16 02:36:30;;;;;;;2.95;1.10;;;2.40;70.10;;;;;;6248059;23;20031;-78
2022/01/16 02:39:05;;;;;;;1.58;1.00;;;2.40;69.50;;;;;;6248174;23;20019;-78
2022/01/16 02:41:31;;;;;;;2.35;1.17;;;2.40;69.10;;;;;;6248224;23;19996;-78
2022/01/16 02:43:57;;;;;;;1.52;1.00;;;2.40;68.80;;;;;;6248054;23;20008;-78
2022/01/16 02:48:49;;;;;;;1.88;0.80;;;2.40;68.60;;;;;;6248671;23;19996;-78
2022/01/16 02:51:17;;;;;;;1.23;0.80;;;2.40;68.80;;;;;;6247251;23;20430;-78
2022/01/16 02:53:43;;;;;;;2.67;1.05;;;2.40;68.80;;;;;;6220436;23;20023;-78
2022/01/16 02:56:09;;;;;;;1.95;1.00;;;2.50;68.80;;;;;;6247423;23;20000;-78
2022/01/16 02:58:35;;;;;;;2.70;1.00;;;2.50;69.20;;;;;;6220878;23;20008;-78
2022/01/16 03:01:00;;;;;;;0.80;0.80;;;2.50;69.10;;;;;;6247991;23;20071;-78
2022/01/16 03:03:26;;;;;;;0.93;0.80;;;2.50;69.00;;;;;;6247804;23;20003;-78
2022/01/16 03:05:52;;;;;;;1.27;0.80;;;2.50;69.10;;;;;;6221000;23;20055;-79
2022/01/16 03:08:18;;;;;;;1.52;1.00;;;2.50;69.30;;;;;;6221417;23;20011;-78
2022/01/16 03:13:31;;;;;;;2.05;0.90;;;2.60;69.30;;;;;;6247724;23;20007;-77
2022/01/16 03:15:57;;;;;;;2.25;1.25;;;2.50;69.70;;;;;;6220703;23;20300;-78
2022/01/16 03:23:34;;;;;;;2.15;1.20;;;2.50;70.00;;;;;;6247539;23;20327;-78
2022/01/16 03:26:00;;;;;;;2.08;1.33;;;2.50;70.20;;;;;;6220507;23;20001;-77
2022/01/16 03:28:26;;;;;;;1.40;1.20;;;2.50;70.30;;;;;;6220855;23;20004;-79
2022/01/16 03:30:54;;;;;;;2.70;1.35;;;2.50;70.50;;;;;;6247266;23;20051;-78
2022/01/16 03:33:20;;;;;;;1.50;1.30;;;2.50;70.50;;;;;;6220434;23;20022;-77
2022/01/16 03:35:47;;;;;;;2.05;1.17;;;2.40;70.50;;;;;;6220279;23;20004;-78
2022/01/16 03:38:13;;;;;;;2.35;1.50;;;2.40;70.60;;;;;;6247292;23;20007;-78
2022/01/16 03:40:39;;;;;;;2.17;1.27;;;2.40;70.60;;;;;;6220447;23;20001;-78
2022/01/16 03:43:14;;;;;;;2.75;1.17;;;2.40;70.50;;;;;;6220127;23;20008;-78
2022/01/16 03:45:45;;;;;;;2.40;1.20;;;2.40;70.30;;;;;;6247491;23;19996;-77
2022/01/16 03:48:11;;;;;;;;;;;2.40;70.90;;;;;;6220879;23;19996;-78
2022/01/16 03:50:37;;;;;;;1.90;1.30;;;2.40;69.70;;;;;;6220437;23;20311;-77
2022/01/16 03:53:04;;;;;;;2.40;1.40;;;2.40;69.90;;;;;;6247276;23;20027;-77
2022/01/16 03:55:30;;;;;;;2.40;1.20;;;2.40;69.80;;;;;;6220341;23;20091;-77
2022/01/16 03:57:57;;;;;;;2.28;1.23;;;2.40;69.80;;;;;;6247137;23;20004;-77
2022/01/16 04:00:23;;;;;;;2.22;1.10;;;2.40;70.00;;;;;;6247259;23;20099;-77
2022/01/16 04:02:48;;;;;;;2.92;1.17;;;2.40;70.10;;;;;;6247220;23;20003;-77
2022/01/16 04:05:14;;;;;;;1.30;0.90;;;2.40;70.00;;;;;;6245981;23;20008;-78
2022/01/16 04:07:40;;;;;;;2.45;1.10;;;2.40;70.50;;;;;;6246859;23;20419;-77
2022/01/16 04:10:08;;;;;;;1.75;1.13;;;2.40;70.00;;;;;;6219937;23;20415;-78
2022/01/16 04:12:37;;;;;;;2.35;1.15;;;2.30;70.10;;;;;;6220293;23;20007;-78
2022/01/16 04:17:28;;;;;;;2.25;1.40;;;2.40;69.80;;;;;;6247678;23;20000;-78
2022/01/16 04:19:54;;;;;;;1.50;0.95;;;2.30;69.70;;;;;;6220513;23;20327;-78
2022/01/16 04:22:20;;;;;;;2.15;1.23;;;2.30;69.60;;;;;;6220030;23;20023;-78
2022/01/16 04:24:46;;;;;;;2.45;1.27;;;2.30;69.50;;;;;;6221261;23;20399;-78
2022/01/16 04:27:13;;;;;;;1.83;1.10;;;2.30;69.40;;;;;;6220072;23;20007;-78
2022/01/16 04:29:40;;;;;;;3.03;1.10;;;2.30;69.40;;;;;;6246943;23;20438;-78
2022/01/16 04:32:06;;;;;;;3.22;1.40;;;2.30;70.00;;;;;;6220183;23;20150;-78
2022/01/16 04:34:32;;;;;;;2.60;1.40;;;2.30;69.30;;;;;;6247139;23;20350;-77
2022/01/16 04:36:58;;;;;;;3.22;1.60;;;2.30;69.60;;;;;;6246947;23;20015;-78
2022/01/16 04:39:31;;;;;;;2.60;1.33;;;2.30;69.70;;;;;;6220242;23;20015;-78
2022/01/16 04:44:41;;;;;;;2.67;1.30;;;2.30;69.50;;;;;;6246948;23;20453;-77
2022/01/16 04:47:07;;;;;;;1.75;1.20;;;2.30;69.60;;;;;;6246401;23;19996;-77
2022/01/16 04:49:33;;;;;;;2.28;1.40;;;2.30;69.50;;;;;;6246573;23;20071;-77
2022/01/16 04:51:58;;;;;;;2.75;1.50;;;2.30;69.40;;;;;;6220059;23;20000;-78
2022/01/16 04:54:27;;;;;;;2.78;1.52;;;2.30;69.70;;;;;;6219426;23;20334;-77
2022/01/16 04:56:53;;;;;;;2.88;1.60;;;2.30;69.60;;;;;;6220684;23;20008;-78
2022/01/16 04:59:20;;;;;;;3.95;1.63;;;2.30;69.80;;;;;;6246678;23;20076;-78
2022/01/16 05:01:46;;;;;;;2.03;1.38;;;2.30;69.80;;;;;;6219860;23;20003;-77
2022/01/16 05:04:12;;;;;;;2.60;1.30;;;2.30;69.80;;;;;;6246302;23;20079;-78
2022/01/16 05:06:38;;;;;;;1.95;1.30;;;2.30;69.90;;;;;;6219241;23;20012;-77
2022/01/16 05:09:04;;;;;;;2.88;1.75;;;2.30;70.00;;;;;;6219840;23;20303;-77
2022/01/16 05:11:30;;;;;;;3.35;2.15;;;2.30;70.30;;;;;;6246283;23;20107;-77
2022/01/16 05:16:40;;;;;;;6.00;3.17;;;2.20;70.60;;;;;;6247506;23;20004;-77
2022/01/16 05:19:07;;;;;;;6.45;3.63;;;2.30;70.70;;;;;;6247525;23;20010;-77
2022/01/16 05:21:34;;;;;;;5.72;3.10;;;2.20;70.90;;;;;;6220947;23;19997;-78
2022/01/16 05:24:02;;;;;;;5.45;2.85;;;2.20;70.90;;;;;;6247103;23;19992;-78
2022/01/16 05:26:29;;;;;;;5.53;2.95;;;2.20;70.90;;;;;;6220364;23;20000;-78
2022/01/16 05:28:55;;;;;;;5.25;3.10;;;2.20;71.10;;;;;;6246927;23;20004;-78
2022/01/16 05:31:22;;;;;;;3.05;1.95;;;2.20;71.10;;;;;;6219963;23;20014;-80
2022/01/16 05:33:49;;;;;;;2.67;1.88;;;2.20;71.20;;;;;;6220142;23;20431;-84
2022/01/16 05:36:22;;;;;;;3.55;2.03;;;2.20;71.20;;;;;;6194715;23;20031;-84
2022/01/16 05:38:49;;;;;;;3.08;1.58;;;2.20;71.10;;;;;;6220019;23;20039;-84
2022/01/16 05:41:19;;;;;;;2.63;1.55;;;2.20;71.20;;;;;;6219611;23;20000;-83
2022/01/16 05:43:52;;;;;;;2.43;1.73;;;2.20;71.10;;;;;;6218829;23;20039;-83
2022/01/16 05:46:18;;;;;;;3.13;1.65;;;2.20;70.50;;;;;;6220173;23;20236;-83
2022/01/16 05:48:50;;;;;;;3.38;1.45;;;2.20;70.50;;;;;;6220003;23;20393;-83
2022/01/16 05:51:18;;;;;;;2.40;1.58;;;2.20;70.40;;;;;;6246515;23;20446;-83
2022/01/16 05:53:45;;;;;;;2.78;1.63;;;2.20;70.20;;;;;;6194329;23;20108;-83
2022/01/16 05:56:15;;;;;;;3.03;1.50;;;2.20;70.00;;;;;;6247026;23;20008;-84
2022/01/16 05:58:41;;;;;;;2.97;1.42;;;2.30;70.10;;;;;;6247896;23;20012;-84
2022/01/16 06:01:09;;;;;;;1.98;1.10;;;2.30;70.20;;;;;;6247670;23;20023;-84
2022/01/16 06:03:37;;;;;;;5.15;2.00;;;2.30;70.30;;;;;;6220828;23;20453;-83
2022/01/16 06:06:03;;;;;;;5.20;2.70;;;2.30;70.40;;;;;;6221425;23;20004;-84
2022/01/16 06:08:29;;;;;;;4.80;2.50;;;2.30;70.50;;;;;;6247120;23;20000;-84
2022/01/16 06:10:54;;;;;;;4.65;2.30;;;2.30;70.50;;;;;;6220658;23;20453;-84
2022/01/16 06:13:20;;;;;;;4.63;2.30;;;2.30;70.60;;;;;;6219912;23;20031;-84
2022/01/16 06:15:46;;;;;;;4.10;2.20;;;2.30;70.70;;;;;;6220133;23;20005;-84
2022/01/16 06:18:14;;;;;;;3.22;2.10;;;2.30;70.90;;;;;;6219311;23;20012;-84
2022/01/16 06:20:43;;;;;;;4.07;2.15;;;2.30;71.10;;;;;;6220678;23;20011;-84
2022/01/16 06:23:09;;;;;;;5.10;2.20;;;2.20;71.10;;;;;;6220885;23;20323;-85
2022/01/16 06:25:34;;;;;;;2.25;1.70;;;2.30;71.30;;;;;;6223746;23;20501;-84
2022/01/16 06:28:00;;;;;;;1.88;1.38;;;2.20;71.40;;;;;;6221620;23;20000;-86
2022/01/16 06:30:26;;;;;;;1.85;1.40;;;2.30;71.70;;;;;;6220325;23;20027;-86
2022/01/16 06:32:52;;;;;;;1.77;1.17;;;2.20;71.50;;;;;;6220758;23;20379;-85
2022/01/16 06:35:18;;;;;;;2.97;1.60;;;2.30;71.80;;;;;;6221191;23;20011;-85
2022/01/16 06:37:48;;;;;;;3.40;1.55;;;2.30;71.50;;;;;;6220672;23;20091;-85
2022/01/16 06:40:23;;;;;;;3.13;1.17;;;2.30;71.30;;;;;;6247548;23;19996;-82
2022/01/16 06:42:49;;;;;;;4.90;1.55;;;2.30;71.30;;;;;;6220957;23;20004;-82
2022/01/16 06:45:15;;;;;;;1.92;1.48;;;2.30;71.10;;;;;;6220670;23;20090;-80
2022/01/16 06:47:40;;;;;;;3.33;1.70;;;2.30;71.10;;;;;;6247951;23;20095;-81
2022/01/16 06:50:08;;;;;;;3.72;1.52;;;2.30;71.10;;;;;;6220941;23;20481;-81
2022/01/16 06:52:34;;;;;;;3.88;1.40;;;2.30;70.90;;;;;;6247374;23;20000;-80
2022/01/16 06:55:00;;;;;;;2.53;1.48;;;2.40;70.90;;;;;;6221200;23;20034;-83
2022/01/16 06:57:26;;;;;;;4.35;1.65;;;2.40;70.70;;;;;;6220640;23;20086;-80
2022/01/16 06:59:51;;;;;;;2.88;1.70;;;2.40;70.50;;;;;;6222073;23;20000;-81
2022/01/16 07:02:17;;;;;;;3.47;1.60;;;2.40;70.30;;;;;;6220782;23;20003;-80
2022/01/16 07:04:48;;;;;;;3.00;1.65;;;2.40;70.30;;;;;;6219863;23;20000;-82
2022/01/16 07:07:13;;;;;;;5.13;1.65;;;2.40;70.20;;;;;;6220753;23;20000;-82
2022/01/16 07:09:39;;;;;;;3.78;1.80;;;2.40;70.30;;;;;;6220507;23;20095;-82
2022/01/16 07:12:14;;;;;;;3.53;1.77;;;2.40;70.30;;;;;;6220418;23;20091;-82
2022/01/16 07:14:43;;;;;;;2.90;1.70;;;2.40;70.30;;;;;;6248175;23;19996;-82
2022/01/16 07:17:09;;;;;;;4.28;2.03;;;2.40;70.40;;;;;;6220380;23;20055;-81
2022/01/16 07:19:35;;;;;;;4.18;2.00;;;2.50;70.50;;;;;;6220205;23;20047;-81
2022/01/16 07:22:01;;;;;;;2.50;1.65;;;2.50;70.60;;;;;;6247073;23;19998;-82
2022/01/16 07:24:27;;;;;;;3.55;1.90;;;2.50;70.80;;;;;;6220584;23;20091;-82
2022/01/16 07:26:54;;;;;;;3.22;1.58;;;2.50;70.60;;;;;;6247023;23;20000;-82
2022/01/16 07:29:20;;;;;;;3.97;1.80;;;2.50;70.90;;;;;;6220965;23;20004;-81
2022/01/16 07:31:46;;;;;;;4.82;2.13;;;2.60;70.80;;;;;;6220397;23;20415;-81
2022/01/16 07:34:12;;;;;;;4.03;2.13;;;2.60;70.80;;;;;;6247725;23;20000;-82
2022/01/16 07:36:38;;;;;;;3.50;2.03;;;2.60;70.90;;;;;;6220081;23;20326;-81
2022/01/16 07:39:05;;;;;;;3.65;2.00;;;2.60;71.00;;;;;;6246737;23;19999;-81
2022/01/16 07:41:34;;;;;;;3.67;2.00;;;2.60;71.00;;;;;;6220414;23;20035;-82
2022/01/16 07:44:01;;;;;;;4.18;1.95;;;2.70;71.00;;;;;;6220289;23;20031;-80
2022/01/16 07:46:27;;;;;;;3.92;1.63;;;2.70;71.00;;;;;;6246937;23;19996;-82
2022/01/16 07:48:53;;;;;;;3.58;1.85;;;2.70;70.90;;;;;;6220033;23;20245;-81
2022/01/16 07:51:32;;;;;;;3.45;1.80;;;2.80;71.00;;;;;;6220310;23;20008;-81
2022/01/16 07:54:04;;;;;;;4.28;2.15;;;2.80;71.20;;;;;;6196245;23;20067;-81
2022/01/16 07:56:30;;;;;;;3.85;2.10;;;2.80;71.20;;;;;;6220074;23;20004;-81
2022/01/16 07:58:59;;;;;;;4.57;2.15;;;2.80;71.50;;;;;;6246889;23;20000;-81
2022/01/16 08:01:24;;;;;;;3.33;2.10;;;2.70;71.60;;;;;;6220131;23;20000;-79
2022/01/16 08:03:50;;;;;;;3.28;1.80;;;2.70;71.80;;;;;;6246999;23;20008;-80
2022/01/16 08:06:18;;;;;;;4.22;1.90;;;2.70;72.00;;;;;;6246826;23;20000;-80
2022/01/16 08:08:44;;;;;;;3.97;2.00;;;2.70;72.20;;;;;;6219908;23;20087;-81
2022/01/16 08:11:10;;;;;;;3.50;1.80;;;2.70;72.40;;;;;;6246532;23;20035;-81
2022/01/16 08:13:37;;;;;;;3.20;1.83;;;2.70;72.60;;;;;;6219749;23;20325;-82
2022/01/16 08:16:03;;;;;;;4.97;2.10;;;2.70;72.90;;;;;;6219216;23;20419;-80
2022/01/16 08:18:29;;;;;;;3.78;1.90;;;2.70;73.00;;;;;;6219942;23;20435;-81
2022/01/16 08:20:58;;;;;;;3.75;1.92;;;2.70;72.90;;;;;;6220107;23;20012;-81
2022/01/16 08:23:24;;;;;;;4.78;2.00;;;2.70;73.00;;;;;;6246341;23;20438;-81
2022/01/16 08:25:51;;;;;;;4.25;2.10;;;2.70;73.10;;;;;;6220133;23;20028;-81
2022/01/16 08:28:20;;;;;;;4.65;2.30;;;2.70;73.30;;;;;;6220132;23;20090;-81
2022/01/16 08:30:46;;;;;;;3.70;1.92;;;2.70;73.20;;;;;;6221905;23;20359;-81
2022/01/16 08:33:11;;;;;;;3.60;2.08;;;2.80;73.40;;;;;;6246554;23;20004;-80
2022/01/16 08:35:37;;;;;;;5.22;2.00;;;2.80;73.30;;;;;;6246185;23;20027;-80
2022/01/16 08:38:03;;;;;;;3.90;2.45;;;2.90;73.40;;;;;;6219886;23;20030;-81
2022/01/16 08:40:29;;;;;;;4.85;2.47;;;2.90;73.20;;;;;;6246658;23;20000;-80
2022/01/16 08:42:54;;;;;;;5.28;2.05;;;3.00;72.90;;;;;;6220028;23;20008;-81
2022/01/16 08:45:20;;;;;;;6.13;3.05;;;3.00;72.90;;;;;;6219895;23;20444;-80
2022/01/16 08:47:46;;;;;;;4.30;2.50;;;3.00;72.70;;;;;;6247313;23;20046;-82
2022/01/16 08:50:14;;;;;;;4.55;2.40;;;3.00;72.50;;;;;;6221834;23;20419;-82
2022/01/16 08:52:40;;;;;;;3.75;2.17;;;3.00;72.60;;;;;;6220518;23;20008;-82
2022/01/16 08:55:08;;;;;;;4.35;2.03;;;3.00;72.50;;;;;;6247369;23;20037;-80
2022/01/16 08:57:49;;;;;;;4.22;2.35;;;3.10;72.50;;;;;;6223331;23;20008;-82
2022/01/16 09:00:15;;;;;;;4.95;2.20;;;3.10;72.30;;;;;;6221015;23;20112;-81
2022/01/16 09:02:41;;;;;;;3.85;2.10;;;3.10;72.70;;;;;;6247053;23;20399;-82
2022/01/16 09:05:12;;;;;;;4.93;2.20;;;3.10;71.80;;;;;;6246651;23;20001;-83
2022/01/16 09:07:38;;;;;;;5.68;1.98;;;3.10;71.80;;;;;;6246208;23;20000;-82
2022/01/16 09:10:05;;;;;;;5.03;2.00;;;3.10;71.60;;;;;;6219925;23;20430;-81
2022/01/16 09:12:30;;;;;;;4.72;2.05;;;3.10;71.50;;;;;;6219387;23;20027;-82
2022/01/16 09:14:58;;;;;;;4.20;2.00;;;3.10;71.60;;;;;;6219380;23;20346;-81
2022/01/16 09:17:24;;;;;;;5.22;1.90;;;3.10;71.60;;;;;;6219477;23;20008;-79
2022/01/16 09:19:49;;;;;;;4.45;1.95;;;3.10;71.70;;;;;;6219354;23;20024;-81
2022/01/16 09:22:16;;;;;;;4.07;1.73;;;3.10;71.70;;;;;;6219377;23;20486;-81
2022/01/16 09:24:42;;;;;;;4.43;2.20;;;3.20;71.60;;;;;;6219254;23;20036;-81
2022/01/16 09:27:08;;;;;;;3.05;1.80;;;3.20;71.20;;;;;;6219632;23;20441;-80
2022/01/16 09:29:34;;;;;;;4.97;2.33;;;3.20;71.20;;;;;;6247458;23;20071;-80
2022/01/16 09:32:00;;;;;;;3.15;1.50;;;3.30;70.80;;;;;;6221182;23;20030;-81
2022/01/16 09:34:27;;;;;;;3.38;2.08;;;3.40;70.60;;;;;;6221604;23;20007;-81
2022/01/16 09:36:52;;;;;;;4.35;2.25;;;3.40;70.20;;;;;;6221315;23;20362;-80
2022/01/16 09:39:18;;;;;;;3.72;2.40;;;3.40;70.00;;;;;;6247647;23;20026;-79
2022/01/16 09:41:45;;;;;;;5.88;2.47;;;3.50;69.80;;;;;;6248239;23;20071;-79
2022/01/16 09:44:11;;;;;;;5.53;2.20;;;3.50;69.70;;;;;;6247814;23;20000;-79
2022/01/16 09:46:37;;;;;;;4.60;2.03;;;3.60;69.70;;;;;;6247866;23;20355;-80
2022/01/16 09:49:06;;;;;;;4.95;1.90;;;3.60;69.30;;;;;;6220875;23;20004;-78
2022/01/16 09:51:32;;;;;;;3.72;1.85;;;3.70;68.80;;;;;;6221237;23;20415;-79
2022/01/16 09:53:58;;;;;;;7.82;3.63;;;3.70;67.80;;;;;;6247310;23;20020;-83
2022/01/16 09:56:24;;;;;;;29.23;17.25;;;3.70;68.20;;;;;;6220484;23;20069;-85
2022/01/16 09:58:51;;;;;;;50.38;24.30;;;3.80;68.30;;;;;;6248225;23;20000;-84
2022/01/16 10:01:16;;;;;;;25.88;12.95;;;3.80;68.30;;;;;;6221366;23;20007;-78
2022/01/16 10:03:46;;;;;;;15.45;7.82;;;3.90;68.40;;;;;;6248240;23;20007;-78
2022/01/16 10:06:17;;;;;;;12.68;5.85;;;4.00;68.10;;;;;;6248049;23;20083;-75
2022/01/16 10:08:44;;;;;;;8.68;4.03;;;4.00;67.50;;;;;;6221025;23;20001;-75
2022/01/16 10:11:24;;;;;;;7.78;3.40;;;4.00;66.60;;;;;;6221103;23;20091;-76
2022/01/16 10:14:20;;;;;;;4.00;2.20;;;4.00;66.40;;;;;;6220960;23;20038;-75
2022/01/16 10:16:46;;;;;;;3.85;1.98;;;4.00;66.50;;;;;;6220910;23;20015;-75
2022/01/16 10:19:24;;;;;;;18.60;9.80;;;4.00;66.60;;;;;;6221639;23;20011;-78
2022/01/16 10:21:50;;;;;;;24.23;11.15;;;4.00;66.10;;;;;;6247331;23;19992;-79
2022/01/16 10:24:25;;;;;;;13.63;7.10;;;4.00;66.20;;;;;;6216292;23;20079;-78
2022/01/16 10:27:21;;;;;;;9.07;4.72;;;4.10;66.10;;;;;;6244082;23;20007;-77
2022/01/16 10:29:51;;;;;;;8.43;3.72;;;4.10;63.80;;;;;;6191921;23;20004;-80
2022/01/16 10:32:28;;;;;;;4.90;2.72;;;4.00;64.50;;;;;;6242573;23;20507;-78
2022/01/16 10:35:06;;;;;;;4.25;2.47;;;4.00;65.10;;;;;;6243692;23;19996;-80
2022/01/16 10:37:32;;;;;;;7.78;2.90;;;3.90;65.30;;;;;;6216551;23;20012;-77
2022/01/16 10:39:58;;;;;;;6.75;2.70;;;3.90;65.10;;;;;;6243810;23;20419;-77
2022/01/16 10:42:24;;;;;;;5.45;2.30;;;3.90;65.00;;;;;;6217483;23;20008;-78
2022/01/16 10:45:26;;;;;;;2.92;2.00;;;3.80;64.50;;;;;;6217219;23;20513;-78
2022/01/16 10:47:54;;;;;;;3.33;1.92;;;3.70;63.80;;;;;;6138913;23;20000;-79
2022/01/16 10:50:47;;;;;;;3.97;2.00;;;3.60;64.30;;;;;;6242263;23;20000;-81
2022/01/16 10:53:15;;;;;;;2.80;2.10;;;3.50;64.20;;;;;;6208255;23;20083;-81
2022/01/16 10:55:53;;;;;;;3.97;2.25;;;3.40;65.00;;;;;;6216203;23;20148;-78
2022/01/16 10:58:43;;;;;;;5.50;2.60;;;3.40;65.10;;;;;;6216999;23;20012;-79
2022/01/16 11:01:14;;;;;;;5.38;2.55;;;3.20;65.60;;;;;;6216619;23;19997;-78
2022/01/16 11:03:50;;;;;;;5.95;3.22;;;3.20;65.80;;;;;;6216099;23;20297;-78
2022/01/16 11:06:18;;;;;;;5.15;3.08;;;3.20;66.00;;;;;;6216417;23;20711;-78
2022/01/16 11:08:56;;;;;;;6.00;3.05;;;3.20;66.00;;;;;;6216474;23;20092;-77
2022/01/16 11:11:25;;;;;;;6.35;3.10;;;3.10;65.80;;;;;;6244487;23;20038;-79
2022/01/16 11:13:51;;;;;;;10.52;4.00;;;3.10;65.70;;;;;;6217801;23;20423;-84
2022/01/16 11:16:17;;;;;;;13.95;7.13;;;3.00;65.20;;;;;;6219260;23;20008;-79
2022/01/16 11:18:49;;;;;;;18.33;9.65;;;3.00;64.80;;;;;;6218402;23;20004;-81
2022/01/16 11:21:32;;;;;;;12.57;6.65;;;3.00;64.80;;;;;;6219986;23;20131;-77
2022/01/16 11:26:27;;;;;;;8.52;4.22;;;2.90;64.60;;;;;;6244517;23;20000;-78
2022/01/16 11:28:54;;;;;;;8.18;4.18;;;2.90;64.70;;;;;;6243531;23;20000;-78
2022/01/16 11:31:20;;;;;;;8.70;4.00;;;2.90;65.10;;;;;;6217532;23;20027;-78
2022/01/16 11:33:46;;;;;;;8.68;4.10;;;2.90;65.50;;;;;;6220156;23;20011;-77
2022/01/16 11:36:23;;;;;;;5.85;2.95;;;2.90;64.60;;;;;;6219910;23;20027;-77
2022/01/16 11:38:53;;;;;;;3.63;2.40;;;2.90;64.90;;;;;;6218481;23;20000;-77
2022/01/16 11:41:25;;;;;;;4.78;2.50;;;2.80;64.50;;;;;;6244529;23;20000;-79
2022/01/16 11:43:52;;;;;;;4.05;2.10;;;2.90;64.80;;;;;;6245081;23;20091;-77
2022/01/16 11:46:19;;;;;;;5.72;2.75;;;2.90;65.00;;;;;;6215521;23;20032;-77
2022/01/16 11:49:01;;;;;;;2.95;2.03;;;2.90;64.10;;;;;;6241348;23;20000;-78
2022/01/16 11:51:36;;;;;;;5.05;2.45;;;2.90;63.20;;;;;;6241671;23;20003;-80
2022/01/16 11:54:02;;;;;;;3.75;1.83;;;2.80;63.20;;;;;;6241554;23;20023;-79
2022/01/16 11:56:39;;;;;;;4.90;2.25;;;2.70;63.80;;;;;;6241881;23;19996;-79
2022/01/16 11:59:11;;;;;;;3.72;1.75;;;2.70;63.30;;;;;;6215886;23;20474;-77
2022/01/16 12:01:46;;;;;;;3.08;1.85;;;2.70;63.80;;;;;;6243617;23;20001;-77
2022/01/16 12:04:30;;;;;;;3.08;1.88;;;2.60;63.80;;;;;;6245472;23;20331;-77
2022/01/16 12:06:55;;;;;;;5.53;2.67;;;2.60;63.80;;;;;;6246547;23;20310;-77
2022/01/16 12:12:16;;;;;;;6.15;2.78;;;2.60;64.00;;;;;;6246809;23;20000;-75
2022/01/16 12:14:58;;;;;;;6.45;2.80;;;2.60;64.50;;;;;;6220278;23;20006;-76
2022/01/16 12:17:27;;;;;;;10.48;4.70;;;2.60;63.80;;;;;;6246906;23;20008;-76
2022/01/16 12:19:53;;;;;;;7.03;3.60;;;2.60;64.20;;;;;;6219856;23;20054;-76
2022/01/16 12:22:46;;;;;;;4.97;2.50;;;2.60;64.20;;;;;;6246407;23;19996;-76
2022/01/16 12:25:24;;;;;;;3.63;2.20;;;2.60;63.50;;;;;;6219807;23;20000;-77
2022/01/16 12:27:55;;;;;;;3.38;1.95;;;2.60;63.50;;;;;;6220102;23;20066;-77
2022/01/16 12:30:26;;;;;;;2.80;1.50;;;2.60;64.00;;;;;;6246860;23;20049;-76
2022/01/16 12:33:21;;;;;;;4.25;2.22;;;2.50;63.80;;;;;;6220027;23;20004;-75
2022/01/16 12:35:54;;;;;;;4.50;2.20;;;2.50;63.60;;;;;;6249134;23;20004;-76
2022/01/16 12:38:23;;;;;;;4.97;2.50;;;2.50;63.80;;;;;;6256496;23;20019;-77
2022/01/16 12:40:59;;;;;;;5.90;2.60;;;2.50;64.10;;;;;;6221947;23;19996;-77
2022/01/16 12:43:39;;;;;;;4.95;2.28;;;2.50;64.10;;;;;;6246671;23;20028;-77
2022/01/16 12:46:05;;;;;;;2.97;1.98;;;2.50;64.40;;;;;;6246478;23;20016;-77
2022/01/16 12:48:31;;;;;;;3.30;1.38;;;2.40;64.10;;;;;;6219780;23;20320;-77
2022/01/16 12:51:02;;;;;;;2.67;1.55;;;2.40;64.30;;;;;;6246591;23;20001;-77
2022/01/16 12:53:36;;;;;;;;;;;2.40;64.40;;;;;;6246410;23;20098;-76
2022/01/16 12:56:26;;;;;;;5.22;2.22;;;2.40;64.50;;;;;;6246387;23;19989;-76
2022/01/16 12:58:57;;;;;;;6.15;2.90;;;2.40;64.80;;;;;;6219936;23;20062;-76
2022/01/16 13:01:24;;;;;;;11.40;4.90;;;2.40;64.90;;;;;;6246200;23;20398;-77
2022/01/16 13:03:50;;;;;;;13.07;5.63;;;2.40;65.00;;;;;;6247175;23;20008;-77
2022/01/16 13:06:32;;;;;;;11.02;4.70;;;2.40;65.20;;;;;;6221488;23;20083;-76
2022/01/16 13:09:00;;;;;;;11.65;5.07;;;2.40;65.30;;;;;;6248644;23;20047;-76
2022/01/16 13:11:38;;;;;;;12.27;4.68;;;2.40;65.40;;;;;;6248312;23;20079;-76
2022/01/16 13:14:06;;;;;;;9.75;4.45;;;2.40;65.40;;;;;;6221268;23;20000;-76
2022/01/16 13:16:35;;;;;;;8.48;3.50;;;2.30;65.30;;;;;;6248307;23;20008;-77
2022/01/16 13:19:07;;;;;;;6.38;2.85;;;2.30;65.20;;;;;;6221392;23;20008;-76
2022/01/16 13:22:02;;;;;;;5.50;2.90;;;2.30;65.30;;;;;;6248707;23;19996;-76
2022/01/16 13:24:32;;;;;;;6.70;2.83;;;2.20;64.80;;;;;;6221639;23;20011;-77
2022/01/16 13:27:00;;;;;;;4.78;2.38;;;2.20;65.00;;;;;;6221322;23;20008;-76
2022/01/16 13:29:26;;;;;;;3.85;2.05;;;2.20;64.40;;;;;;6221181;23;20051;-77
2022/01/16 13:31:52;;;;;;;3.58;1.90;;;2.10;64.50;;;;;;6248595;23;19996;-76
2022/01/16 13:34:31;;;;;;;6.63;1.70;;;2.10;64.60;;;;;;6221198;23;20004;-77
2022/01/16 13:36:57;;;;;;;3.13;1.55;;;2.10;65.20;;;;;;6220921;23;20004;-77
2022/01/16 13:40:02;;;;;;;2.13;1.30;;;2.10;64.80;;;;;;6221049;23;20011;-75
2022/01/16 13:45:39;;;;;;;2.38;1.40;;;2.00;64.90;;;;;;6096252;23;20434;-75
2022/01/16 13:48:15;;;;;;;4.40;1.90;;;2.00;65.10;;;;;;6194586;23;20011;-76
2022/01/16 13:50:48;;;;;;;2.63;1.63;;;1.90;65.00;;;;;;6221027;23;20001;-76
2022/01/16 13:53:22;;;;;;;3.35;1.60;;;1.90;65.10;;;;;;6247728;23;20016;-76
2022/01/16 13:56:00;;;;;;;2.55;1.50;;;1.90;65.10;;;;;;6220702;23;20411;-77
2022/01/16 13:58:31;;;;;;;2.40;1.80;;;1.90;65.30;;;;;;6247972;23;20063;-77
2022/01/16 14:01:17;;;;;;;3.38;1.80;;;1.90;65.50;;;;;;6221115;23;19996;-77